createdAt,value
2022-09-01T00:00:26.493Z,15.05
2022-09-01T00:01:26.499Z,15.06
2022-09-01T00:02:26.574Z,15.03
2022-09-01T00:03:26.694Z,15.02
2022-09-01T00:04:26.527Z,14.98
2022-09-01T00:05:26.471Z,14.95
2022-09-01T00:06:26.432Z,14.91
2022-09-01T00:07:26.465Z,14.90
2022-09-01T00:08:26.406Z,14.90
2022-09-01T00:09:26.415Z,14.88
2022-09-01T00:10:26.389Z,14.90
2022-09-01T00:11:26.373Z,14.90
2022-09-01T00:12:26.365Z,14.90
2022-09-01T00:13:26.389Z,14.88
2022-09-01T00:14:29.811Z,14.87
2022-09-01T00:15:26.446Z,14.87
2022-09-01T00:16:26.325Z,14.86
2022-09-01T00:17:26.321Z,14.86
2022-09-01T00:18:26.300Z,14.83
2022-09-01T00:19:26.302Z,14.83
2022-09-01T00:20:26.269Z,14.80
2022-09-01T00:21:26.262Z,14.80
2022-09-01T00:22:26.268Z,14.75
2022-09-01T00:23:26.234Z,14.72
2022-09-01T00:24:26.463Z,14.68
2022-09-01T00:25:26.209Z,14.67
2022-09-01T00:26:26.200Z,14.64
2022-09-01T00:27:27.935Z,14.61
2022-09-01T00:28:28.746Z,14.56
2022-09-01T00:29:26.181Z,14.56
2022-09-01T00:30:26.166Z,14.54
2022-09-01T00:31:26.176Z,14.57
2022-09-01T00:32:26.144Z,14.60
2022-09-01T00:33:26.113Z,14.65
2022-09-01T00:34:26.115Z,14.67
2022-09-01T00:35:26.114Z,14.68
2022-09-01T00:36:26.091Z,14.65
2022-09-01T00:37:26.119Z,14.65
2022-09-01T00:38:26.073Z,14.61
2022-09-01T00:39:26.047Z,14.60
2022-09-01T00:40:26.137Z,14.57
2022-09-01T00:41:26.053Z,14.54
2022-09-01T00:42:26.017Z,14.50
2022-09-01T00:43:25.996Z,14.44
2022-09-01T00:44:25.996Z,14.43
2022-09-01T00:45:25.998Z,14.39
2022-09-01T00:46:29.044Z,14.39
2022-09-01T00:47:25.958Z,14.38
2022-09-01T00:48:25.964Z,14.34
2022-09-01T00:49:25.938Z,14.34
2022-09-01T00:50:25.937Z,14.32
2022-09-01T00:51:25.947Z,14.32
2022-09-01T00:52:25.900Z,14.31
2022-09-01T00:53:25.918Z,14.31
2022-09-01T00:54:25.884Z,14.31
2022-09-01T00:55:25.869Z,14.29
2022-09-01T00:56:25.873Z,14.27
2022-09-01T00:57:25.842Z,14.29
2022-09-01T00:58:25.859Z,14.31
2022-09-01T00:59:25.886Z,14.29
2022-09-01T01:00:26.773Z,14.25
2022-09-01T01:01:25.839Z,14.24
2022-09-01T01:02:25.835Z,14.24
2022-09-01T01:03:25.817Z,14.24
2022-09-01T01:05:43.752Z,14.20
2022-09-01T01:06:43.714Z,14.17
2022-09-01T01:07:43.699Z,14.19
2022-09-01T01:08:43.707Z,14.20
2022-09-01T01:11:04.765Z,14.25
2022-09-01T01:12:04.665Z,14.25
2022-09-01T01:13:04.671Z,14.29
2022-09-01T01:14:04.656Z,14.31
2022-09-01T01:15:04.699Z,14.31
2022-09-01T01:16:04.614Z,14.31
2022-09-01T01:17:04.741Z,14.31
2022-09-01T01:18:04.711Z,14.31
2022-09-01T01:19:04.621Z,14.29
2022-09-01T01:20:04.554Z,14.31
2022-09-01T01:21:04.734Z,14.31
2022-09-01T01:22:04.544Z,14.29
2022-09-01T01:23:04.555Z,14.27
2022-09-01T01:24:04.532Z,14.24
2022-09-01T01:25:04.689Z,14.24
2022-09-01T01:26:04.497Z,14.21
2022-09-01T01:27:04.546Z,14.25
2022-09-01T01:28:04.496Z,14.20
2022-09-01T01:29:04.490Z,14.19
2022-09-01T01:30:04.798Z,14.20
2022-09-01T01:31:04.582Z,14.19
2022-09-01T01:32:04.527Z,14.16
2022-09-01T01:33:04.418Z,14.14
2022-09-01T01:34:04.406Z,14.14
2022-09-01T01:35:04.417Z,14.10
2022-09-01T01:36:04.398Z,14.06
2022-09-01T01:37:04.429Z,14.02
2022-09-01T01:38:04.576Z,13.96
2022-09-01T01:39:04.439Z,13.94
2022-09-01T01:40:04.427Z,13.92
2022-09-01T01:41:04.453Z,13.91
2022-09-01T01:42:04.316Z,13.89
2022-09-01T01:43:04.429Z,13.89
2022-09-01T01:44:04.411Z,13.89
2022-09-01T01:45:04.298Z,13.91
2022-09-01T01:46:04.328Z,13.91
2022-09-01T01:47:04.264Z,13.92
2022-09-01T01:48:04.263Z,13.91
2022-09-01T01:49:04.302Z,13.87
2022-09-01T01:50:04.246Z,13.84
2022-09-01T01:51:04.221Z,13.79
2022-09-01T01:52:04.203Z,13.74
2022-09-01T01:53:04.212Z,13.71
2022-09-01T01:54:05.274Z,13.67
2022-09-01T01:55:05.306Z,13.61
2022-09-01T01:56:04.184Z,13.59
2022-09-01T01:57:04.176Z,13.58
2022-09-01T01:58:04.135Z,13.56
2022-09-01T01:59:04.135Z,13.56
2022-09-01T02:00:05.082Z,13.54
2022-09-01T02:01:04.183Z,13.52
2022-09-01T02:02:04.301Z,13.51
2022-09-01T02:03:04.097Z,13.52
2022-09-01T02:04:04.088Z,13.49
2022-09-01T02:05:05.040Z,13.46
2022-09-01T02:06:04.093Z,13.43
2022-09-01T02:07:04.040Z,13.40
2022-09-01T02:08:04.058Z,13.38
2022-09-01T02:09:04.048Z,13.38
2022-09-01T02:10:04.010Z,13.36
2022-09-01T02:11:04.020Z,13.33
2022-09-01T02:12:03.991Z,13.36
2022-09-01T02:13:04.002Z,13.32
2022-09-01T02:14:03.977Z,13.30
2022-09-01T02:15:03.989Z,13.32
2022-09-01T02:16:03.942Z,13.33
2022-09-01T02:17:04.001Z,13.36
2022-09-01T02:18:05.307Z,13.33
2022-09-01T02:19:03.928Z,13.32
2022-09-01T02:20:04.882Z,13.30
2022-09-01T02:21:03.893Z,13.27
2022-09-01T02:22:04.839Z,13.25
2022-09-01T02:23:03.879Z,13.27
2022-09-01T02:24:03.883Z,13.29
2022-09-01T02:25:04.814Z,13.27
2022-09-01T02:26:19.362Z,13.24
2022-09-01T02:27:04.825Z,13.24
2022-09-01T02:28:03.815Z,13.22
2022-09-01T02:29:03.820Z,13.21
2022-09-01T02:30:03.826Z,13.22
2022-09-01T02:31:04.534Z,13.21
2022-09-01T02:32:05.730Z,13.21
2022-09-01T02:33:03.781Z,13.18
2022-09-01T02:34:05.755Z,13.17
2022-09-01T02:35:03.894Z,13.15
2022-09-01T02:36:03.727Z,13.14
2022-09-01T02:37:03.718Z,13.14
2022-09-01T02:38:03.714Z,13.14
2022-09-01T02:39:03.726Z,13.17
2022-09-01T02:40:03.780Z,13.15
2022-09-01T02:41:03.681Z,13.14
2022-09-01T02:42:03.671Z,13.15
2022-09-01T02:43:03.657Z,13.15
2022-09-01T02:44:03.663Z,13.14
2022-09-01T02:45:03.655Z,13.15
2022-09-01T02:46:03.772Z,13.14
2022-09-01T02:47:03.627Z,13.11
2022-09-01T02:48:03.606Z,13.12
2022-09-01T02:49:03.593Z,13.07
2022-09-01T02:50:03.584Z,13.09
2022-09-01T02:51:03.572Z,13.04
2022-09-01T02:52:03.573Z,13.00
2022-09-01T02:53:04.061Z,12.97
2022-09-01T02:54:03.552Z,12.95
2022-09-01T02:55:03.524Z,12.93
2022-09-01T02:56:03.515Z,12.96
2022-09-01T02:57:03.500Z,12.96
2022-09-01T02:58:03.485Z,12.96
2022-09-01T02:59:05.113Z,12.96
2022-09-01T03:00:03.466Z,12.95
2022-09-01T03:01:03.509Z,12.93
2022-09-01T03:02:03.444Z,12.87
2022-09-01T03:03:03.443Z,12.85
2022-09-01T03:04:03.424Z,12.82
2022-09-01T03:05:03.481Z,12.81
2022-09-01T03:06:03.474Z,12.79
2022-09-01T03:07:03.386Z,12.77
2022-09-01T03:08:03.472Z,12.77
2022-09-01T03:09:03.370Z,12.74
2022-09-01T03:10:03.365Z,12.75
2022-09-01T03:11:03.389Z,12.74
2022-09-01T03:12:03.339Z,12.71
2022-09-01T03:13:03.323Z,12.70
2022-09-01T03:14:03.315Z,12.69
2022-09-01T03:15:03.320Z,12.66
2022-09-01T03:16:03.332Z,12.66
2022-09-01T03:17:03.335Z,12.63
2022-09-01T03:18:03.290Z,12.62
2022-09-01T03:19:03.339Z,12.59
2022-09-01T03:20:03.278Z,12.56
2022-09-01T03:21:03.241Z,12.54
2022-09-01T03:22:03.253Z,12.52
2022-09-01T03:23:03.218Z,12.51
2022-09-01T03:24:03.231Z,12.48
2022-09-01T03:25:03.207Z,12.48
2022-09-01T03:26:03.196Z,12.45
2022-09-01T03:27:03.183Z,12.45
2022-09-01T03:28:03.257Z,12.44
2022-09-01T03:29:03.143Z,12.42
2022-09-01T03:30:03.149Z,12.41
2022-09-01T03:31:03.229Z,12.38
2022-09-01T03:32:03.240Z,12.37
2022-09-01T03:33:03.115Z,12.31
2022-09-01T03:34:03.162Z,12.33
2022-09-01T03:35:03.088Z,12.34
2022-09-01T03:36:03.079Z,12.34
2022-09-01T03:37:03.086Z,12.33
2022-09-01T03:38:03.059Z,12.31
2022-09-01T03:39:04.020Z,12.30
2022-09-01T03:40:03.117Z,12.30
2022-09-01T03:41:03.018Z,12.30
2022-09-01T03:42:03.071Z,12.29
2022-09-01T03:43:03.387Z,12.24
2022-09-01T03:44:02.988Z,12.21
2022-09-01T03:45:03.014Z,12.23
2022-09-01T03:46:03.067Z,12.20
2022-09-01T03:47:02.975Z,12.15
2022-09-01T03:48:02.969Z,12.15
2022-09-01T03:49:02.936Z,12.16
2022-09-01T03:50:02.936Z,12.19
2022-09-01T03:51:03.108Z,12.19
2022-09-01T03:52:02.916Z,12.21
2022-09-01T03:53:02.916Z,12.23
2022-09-01T03:54:02.887Z,12.26
2022-09-01T03:55:02.920Z,12.26
2022-09-01T03:56:02.884Z,12.24
2022-09-01T03:57:02.849Z,12.23
2022-09-01T03:58:02.844Z,12.20
2022-09-01T03:59:02.840Z,12.15
2022-09-01T04:00:02.849Z,12.15
2022-09-01T04:01:02.959Z,12.12
2022-09-01T04:02:02.870Z,12.09
2022-09-01T04:03:02.858Z,12.06
2022-09-01T04:04:02.873Z,11.99
2022-09-01T04:05:07.750Z,11.96
2022-09-01T04:06:03.763Z,11.93
2022-09-01T04:07:03.745Z,11.86
2022-09-01T04:08:02.756Z,11.77
2022-09-01T04:09:03.293Z,11.77
2022-09-01T04:10:02.773Z,11.74
2022-09-01T04:11:02.726Z,11.74
2022-09-01T04:12:02.687Z,11.74
2022-09-01T04:13:02.709Z,11.72
2022-09-01T04:14:02.736Z,11.74
2022-09-01T04:15:02.668Z,11.77
2022-09-01T04:16:02.773Z,11.78
2022-09-01T04:17:02.642Z,11.74
2022-09-01T04:18:02.624Z,11.75
2022-09-01T04:19:02.640Z,11.74
2022-09-01T04:20:02.600Z,11.74
2022-09-01T04:21:02.640Z,11.77
2022-09-01T04:22:02.646Z,11.75
2022-09-01T04:23:02.646Z,11.74
2022-09-01T04:24:02.579Z,11.71
2022-09-01T04:25:02.592Z,11.68
2022-09-01T04:26:02.532Z,11.70
2022-09-01T04:27:02.682Z,11.68
2022-09-01T04:28:02.522Z,11.64
2022-09-01T04:29:02.521Z,11.64
2022-09-01T04:30:02.516Z,11.62
2022-09-01T04:31:02.489Z,11.64
2022-09-01T04:32:02.775Z,11.62
2022-09-01T04:33:02.518Z,11.61
2022-09-01T04:34:02.460Z,11.62
2022-09-01T04:35:02.550Z,11.61
2022-09-01T04:36:02.438Z,11.59
2022-09-01T04:37:02.434Z,11.62
2022-09-01T04:38:02.481Z,11.57
2022-09-01T04:39:02.407Z,11.54
2022-09-01T04:40:02.526Z,11.53
2022-09-01T04:41:02.370Z,11.54
2022-09-01T04:42:02.382Z,11.54
2022-09-01T04:43:02.381Z,11.56
2022-09-01T04:44:02.354Z,11.57
2022-09-01T04:45:10.077Z,11.59
2022-09-01T04:46:03.451Z,11.59
2022-09-01T04:47:02.317Z,11.64
2022-09-01T04:48:02.343Z,11.67
2022-09-01T04:49:02.367Z,11.70
2022-09-01T04:50:02.282Z,11.68
2022-09-01T04:51:02.322Z,11.70
2022-09-01T04:52:02.244Z,11.67
2022-09-01T04:53:02.240Z,11.68
2022-09-01T04:54:02.229Z,11.65
2022-09-01T04:55:02.219Z,11.64
2022-09-01T04:56:02.226Z,11.65
2022-09-01T04:57:02.200Z,11.67
2022-09-01T04:58:02.223Z,11.68
2022-09-01T04:59:02.182Z,11.71
2022-09-01T05:00:02.241Z,11.75
2022-09-01T05:01:02.294Z,11.78
2022-09-01T05:02:02.226Z,11.83
2022-09-01T05:03:02.134Z,11.89
2022-09-01T05:04:03.935Z,11.89
2022-09-01T05:05:02.123Z,11.93
2022-09-01T05:06:02.117Z,11.96
2022-09-01T05:07:02.085Z,11.96
2022-09-01T05:08:02.074Z,11.99
2022-09-01T05:09:02.060Z,12.02
2022-09-01T05:10:02.106Z,12.06
2022-09-01T05:11:02.036Z,12.05
2022-09-01T05:12:02.034Z,12.05
2022-09-01T05:13:02.193Z,12.05
2022-09-01T05:14:02.031Z,12.05
2022-09-01T05:15:02.686Z,12.04
2022-09-01T05:16:02.166Z,12.05
2022-09-01T05:17:02.005Z,12.04
2022-09-01T05:18:01.964Z,12.04
2022-09-01T05:19:01.948Z,12.04
2022-09-01T05:20:01.968Z,12.04
2022-09-01T05:21:01.929Z,12.05
2022-09-01T05:22:01.924Z,12.02
2022-09-01T05:23:01.941Z,12.02
2022-09-01T05:24:01.921Z,12.04
2022-09-01T05:25:01.880Z,12.05
2022-09-01T05:26:01.885Z,12.08
2022-09-01T05:27:01.862Z,12.08
2022-09-01T05:28:01.853Z,12.11
2022-09-01T05:29:01.865Z,12.13
2022-09-01T05:30:03.840Z,12.12
2022-09-01T05:31:01.909Z,12.13
2022-09-01T05:32:01.813Z,12.19
2022-09-01T05:33:01.870Z,12.24
2022-09-01T05:34:01.802Z,12.27
2022-09-01T05:35:01.812Z,12.33
2022-09-01T05:36:01.806Z,12.37
2022-09-01T05:37:01.753Z,12.42
2022-09-01T05:38:01.744Z,12.42
2022-09-01T05:39:02.310Z,12.49
2022-09-01T05:40:01.766Z,12.54
2022-09-01T05:41:01.705Z,12.56
2022-09-01T05:42:01.719Z,12.57
2022-09-01T05:43:01.714Z,12.62
2022-09-01T05:44:01.702Z,12.59
2022-09-01T05:45:01.688Z,12.56
2022-09-01T05:46:06.976Z,12.57
2022-09-01T05:47:02.715Z,12.57
2022-09-01T05:48:01.663Z,12.60
2022-09-01T05:49:01.635Z,12.57
2022-09-01T05:50:01.629Z,12.59
2022-09-01T05:51:01.617Z,12.60
2022-09-01T05:52:01.595Z,12.59
2022-09-01T05:53:01.589Z,12.64
2022-09-01T05:54:01.571Z,12.71
2022-09-01T05:55:01.570Z,12.71
2022-09-01T05:56:01.571Z,12.74
2022-09-01T05:57:23.375Z,12.75
2022-09-01T05:58:02.537Z,12.70
2022-09-01T06:00:02.510Z,12.79
2022-09-01T06:01:01.491Z,12.87
2022-09-01T06:02:01.643Z,12.92
2022-09-01T06:03:01.606Z,12.97
2022-09-01T06:04:01.467Z,13.03
2022-09-01T06:05:01.468Z,13.09
2022-09-01T06:06:02.402Z,13.15
2022-09-01T06:07:06.427Z,13.18
2022-09-01T06:08:02.431Z,13.18
2022-09-01T06:09:01.419Z,13.18
2022-09-01T06:10:01.405Z,13.20
2022-09-01T06:11:01.415Z,13.15
2022-09-01T06:12:01.397Z,13.17
2022-09-01T06:13:01.380Z,13.14
2022-09-01T06:14:01.356Z,13.11
2022-09-01T06:15:01.369Z,13.09
2022-09-01T06:16:01.392Z,13.12
2022-09-01T06:17:01.330Z,13.20
2022-09-01T06:18:01.324Z,13.27
2022-09-01T06:19:01.301Z,13.38
2022-09-01T06:20:01.318Z,13.47
2022-09-01T06:21:01.276Z,13.55
2022-09-01T06:22:01.271Z,13.59
2022-09-01T06:23:01.289Z,13.65
2022-09-01T06:24:01.257Z,13.62
2022-09-01T06:25:02.840Z,13.65
2022-09-01T06:26:01.238Z,13.67
2022-09-01T06:27:01.216Z,13.69
2022-09-01T06:28:01.206Z,13.71
2022-09-01T06:29:01.209Z,13.80
2022-09-01T06:30:01.213Z,13.88
2022-09-01T06:31:01.229Z,13.91
2022-09-01T06:32:01.183Z,13.91
2022-09-01T06:33:01.144Z,13.92
2022-09-01T06:34:02.106Z,13.99
2022-09-01T06:35:01.141Z,14.09
2022-09-01T06:36:01.121Z,14.17
2022-09-01T06:37:01.132Z,14.24
2022-09-01T06:38:01.105Z,14.31
2022-09-01T06:39:01.084Z,14.37
2022-09-01T06:40:01.085Z,14.42
2022-09-01T06:41:01.095Z,14.43
2022-09-01T06:42:01.055Z,14.43
2022-09-01T06:43:01.048Z,14.29
2022-09-01T06:44:01.038Z,14.19
2022-09-01T06:45:01.026Z,14.14
2022-09-01T06:46:01.008Z,14.13
2022-09-01T06:47:01.125Z,14.10
2022-09-01T06:48:01.011Z,14.10
2022-09-01T06:49:00.981Z,14.13
2022-09-01T06:50:00.966Z,14.14
2022-09-01T06:51:18.569Z,14.14
2022-09-01T06:52:01.984Z,14.20
2022-09-01T06:54:01.952Z,14.28
2022-09-01T06:55:04.491Z,14.34
2022-09-01T06:56:01.907Z,14.39
2022-09-01T06:57:00.918Z,14.44
2022-09-01T06:58:05.875Z,14.50
2022-09-01T06:59:02.645Z,14.54
2022-09-01T07:00:00.861Z,14.60
2022-09-01T07:01:01.102Z,14.62
2022-09-01T07:02:04.695Z,14.69
2022-09-01T07:03:01.840Z,14.72
2022-09-01T07:04:00.835Z,14.78
2022-09-01T07:05:00.816Z,14.81
2022-09-01T07:06:02.416Z,14.84
2022-09-01T07:07:53.315Z,14.90
2022-09-01T07:08:06.140Z,14.90
2022-09-01T07:12:25.102Z,15.03
2022-09-01T07:13:08.961Z,15.01
2022-09-01T07:14:17.209Z,15.02
2022-09-01T07:18:01.668Z,15.02
2022-09-01T07:19:00.650Z,15.05
2022-09-01T07:20:29.660Z,15.09
2022-09-01T07:21:05.489Z,15.11
2022-09-01T07:22:09.510Z,15.13
2022-09-01T07:23:05.766Z,15.20
2022-09-01T07:24:11.216Z,15.20
2022-09-01T07:25:16.912Z,15.24
2022-09-01T07:27:09.405Z,15.30
2022-09-01T07:28:01.555Z,15.28
2022-09-01T07:29:01.832Z,15.35
2022-09-01T07:30:00.542Z,15.38
2022-09-01T07:31:48.903Z,15.41
2022-09-01T07:35:01.484Z,15.66
2022-09-01T07:38:48.393Z,15.88
2022-09-01T07:42:31.580Z,15.27
2022-09-01T07:44:00.410Z,16.35
2022-09-01T07:45:25.466Z,16.40
2022-09-01T07:46:36.750Z,16.49
2022-09-01T07:48:01.384Z,16.65
2022-09-01T07:49:02.946Z,16.73
2022-09-01T07:50:24.523Z,16.75
2022-09-01T07:52:01.312Z,16.88
2022-09-01T07:53:00.300Z,16.96
2022-09-01T07:54:00.273Z,17.03
2022-09-01T07:55:00.278Z,17.11
2022-09-01T07:56:00.271Z,17.18
2022-09-01T07:57:00.264Z,17.20
2022-09-01T07:58:00.247Z,17.23
2022-09-01T07:59:00.245Z,17.30
2022-09-01T08:00:00.215Z,17.33
2022-09-01T08:01:00.203Z,17.38
2022-09-01T08:02:00.246Z,17.43
2022-09-01T08:03:00.293Z,17.47
2022-09-01T08:04:00.179Z,17.50
2022-09-01T08:05:00.187Z,17.53
2022-09-01T08:06:00.155Z,17.57
2022-09-01T08:07:00.165Z,17.63
2022-09-01T08:08:00.137Z,17.66
2022-09-01T08:09:00.130Z,17.69
2022-09-01T08:10:01.406Z,17.69
2022-09-01T08:11:07.346Z,17.71
2022-09-01T08:12:02.725Z,17.76
2022-09-01T08:13:00.086Z,17.79
2022-09-01T08:14:00.072Z,17.87
2022-09-01T08:15:41.102Z,17.89
2022-09-01T08:16:08.749Z,17.95
2022-09-01T08:17:16.822Z,18.02
2022-09-01T08:18:01.065Z,18.10
2022-09-01T08:19:00.069Z,18.21
2022-09-01T08:20:00.051Z,18.31
2022-09-01T08:21:00.031Z,18.40
2022-09-01T08:21:59.996Z,18.46
2022-09-01T08:22:59.967Z,18.57
2022-09-01T08:23:59.974Z,18.62
2022-09-01T08:24:59.951Z,18.73
2022-09-01T08:25:59.928Z,18.79
2022-09-01T08:26:59.928Z,18.84
2022-09-01T08:28:00.373Z,18.91
2022-09-01T08:28:59.917Z,18.98
2022-09-01T08:29:59.887Z,19.01
2022-09-01T08:30:59.954Z,19.08
2022-09-01T08:31:59.969Z,19.14
2022-09-01T08:33:00.104Z,19.18
2022-09-01T08:33:59.884Z,19.21
2022-09-01T08:34:59.890Z,19.23
2022-09-01T08:35:59.831Z,19.23
2022-09-01T08:36:59.852Z,19.28
2022-09-01T08:37:59.792Z,19.32
2022-09-01T08:38:59.798Z,19.35
2022-09-01T08:39:59.827Z,19.38
2022-09-01T08:40:59.883Z,19.42
2022-09-01T08:41:59.842Z,19.50
2022-09-01T08:42:59.758Z,19.54
2022-09-01T08:43:59.760Z,19.58
2022-09-01T08:44:59.800Z,19.63
2022-09-01T08:45:59.790Z,19.68
2022-09-01T08:46:59.736Z,19.69
2022-09-01T08:48:29.194Z,19.75
2022-09-01T08:50:00.684Z,19.84
2022-09-01T08:50:59.670Z,19.87
2022-09-01T08:52:00.892Z,19.95
2022-09-01T08:53:09.020Z,20.03
2022-09-01T08:54:00.639Z,20.06
2022-09-01T08:54:59.625Z,20.13
2022-09-01T08:55:59.635Z,20.23
2022-09-01T08:56:59.633Z,20.25
2022-09-01T08:58:00.350Z,20.25
2022-09-01T08:59:59.590Z,20.31
2022-09-01T09:00:59.562Z,20.38
2022-09-01T09:01:59.573Z,20.38
2022-09-01T09:02:59.590Z,20.38
2022-09-01T09:03:59.523Z,20.42
2022-09-01T09:04:59.528Z,20.47
2022-09-01T09:05:59.491Z,20.50
2022-09-01T09:06:59.505Z,20.54
2022-09-01T09:08:07.328Z,20.61
2022-09-01T09:09:01.116Z,20.59
2022-09-01T09:09:59.482Z,20.62
2022-09-01T09:10:59.441Z,20.65
2022-09-01T09:11:59.439Z,20.68
2022-09-01T09:12:59.422Z,20.71
2022-09-01T09:13:59.405Z,20.76
2022-09-01T09:14:59.440Z,20.79
2022-09-01T09:16:14.759Z,20.80
2022-09-01T09:17:00.392Z,20.77
2022-09-01T09:18:00.389Z,20.74
2022-09-01T09:19:01.321Z,20.79
2022-09-01T09:19:59.369Z,20.83
2022-09-01T09:20:59.335Z,20.86
2022-09-01T09:21:59.331Z,20.90
2022-09-01T09:22:59.814Z,20.93
2022-09-01T09:24:00.243Z,20.90
2022-09-01T09:24:59.298Z,20.90
2022-09-01T09:25:59.275Z,20.87
2022-09-01T09:26:59.293Z,20.84
2022-09-01T09:28:00.816Z,20.89
2022-09-01T09:28:59.238Z,20.87
2022-09-01T09:30:02.879Z,20.95
2022-09-01T09:31:00.264Z,21.02
2022-09-01T09:31:59.250Z,21.09
2022-09-01T09:33:30.813Z,21.08
2022-09-01T09:34:00.384Z,21.09
2022-09-01T09:34:59.568Z,21.02
2022-09-01T09:35:59.755Z,20.96
2022-09-01T09:36:59.162Z,20.93
2022-09-01T09:37:59.132Z,20.91
2022-09-01T09:38:59.153Z,20.89
2022-09-01T09:39:59.125Z,20.90
2022-09-01T09:41:18.490Z,20.93
2022-09-01T09:42:00.185Z,20.93
2022-09-01T09:42:59.613Z,20.95
2022-09-01T09:43:59.332Z,21.01
2022-09-01T09:44:59.081Z,21.05
2022-09-01T09:45:59.066Z,21.05
2022-09-01T09:46:59.095Z,21.09
2022-09-01T09:47:59.028Z,21.04
2022-09-01T09:48:59.017Z,20.86
2022-09-01T09:49:59.029Z,20.87
2022-09-01T09:50:58.987Z,20.96
2022-09-01T09:51:59.038Z,21.06
2022-09-01T09:52:58.974Z,21.19
2022-09-01T09:53:58.961Z,21.27
2022-09-01T09:54:58.978Z,21.34
2022-09-01T09:55:58.940Z,21.34
2022-09-01T09:56:58.930Z,21.38
2022-09-01T09:57:58.910Z,21.44
2022-09-01T09:58:58.911Z,21.45
2022-09-01T10:00:01.152Z,21.46
2022-09-01T10:00:58.942Z,21.56
2022-09-01T10:01:58.881Z,21.57
2022-09-01T10:02:58.878Z,21.60
2022-09-01T10:03:58.946Z,21.66
2022-09-01T10:04:58.885Z,21.74
2022-09-01T10:05:58.850Z,21.81
2022-09-01T10:06:58.843Z,21.82
2022-09-01T10:07:58.804Z,21.88
2022-09-01T10:08:58.818Z,21.97
2022-09-01T10:09:58.800Z,21.98
2022-09-01T10:10:58.973Z,21.97
2022-09-01T10:11:58.802Z,21.99
2022-09-01T10:12:58.778Z,21.99
2022-09-01T10:13:58.768Z,22.02
2022-09-01T10:14:58.766Z,22.09
2022-09-01T10:15:58.719Z,21.97
2022-09-01T10:16:58.792Z,22.04
2022-09-01T10:18:20.609Z,22.09
2022-09-01T10:18:59.712Z,22.10
2022-09-01T10:19:58.690Z,21.91
2022-09-01T10:20:58.675Z,21.81
2022-09-01T10:21:58.661Z,21.66
2022-09-01T10:22:58.682Z,21.66
2022-09-01T10:24:17.146Z,21.81
2022-09-01T10:24:59.644Z,21.83
2022-09-01T10:25:58.632Z,21.88
2022-09-01T10:26:58.606Z,21.81
2022-09-01T10:27:59.264Z,21.78
2022-09-01T10:28:58.603Z,21.71
2022-09-01T10:30:18.462Z,21.60
2022-09-01T10:30:59.593Z,21.59
2022-09-01T10:32:28.017Z,21.57
2022-09-01T10:33:06.782Z,21.60
2022-09-01T10:33:59.539Z,21.61
2022-09-01T10:34:59.559Z,21.60
2022-09-01T10:35:58.495Z,21.50
2022-09-01T10:36:59.081Z,21.57
2022-09-01T10:37:59.460Z,21.61
2022-09-01T10:39:04.966Z,21.61
2022-09-01T10:39:59.471Z,21.67
2022-09-01T10:40:58.496Z,21.74
2022-09-01T10:41:59.902Z,21.76
2022-09-01T10:42:58.456Z,21.85
2022-09-01T10:43:59.547Z,21.94
2022-09-01T10:44:58.401Z,22.06
2022-09-01T10:46:05.335Z,22.07
2022-09-01T10:47:01.996Z,22.14
2022-09-01T10:47:58.364Z,21.99
2022-09-01T10:49:03.138Z,21.81
2022-09-01T10:50:01.248Z,21.71
2022-09-01T10:50:58.348Z,21.76
2022-09-01T10:52:03.664Z,21.92
2022-09-01T10:52:59.335Z,21.97
2022-09-01T10:54:02.143Z,22.01
2022-09-01T10:54:58.286Z,22.04
2022-09-01T10:55:59.214Z,22.12
2022-09-01T10:57:03.986Z,22.19
2022-09-01T10:59:29.797Z,22.25
2022-09-01T10:59:59.507Z,22.37
2022-09-01T11:01:26.095Z,22.49
2022-09-01T11:02:59.556Z,22.39
2022-09-01T11:03:58.298Z,22.34
2022-09-01T11:04:58.268Z,22.27
2022-09-01T11:06:11.353Z,22.12
2022-09-01T11:07:14.823Z,22.20
2022-09-01T11:08:01.178Z,22.28
2022-09-01T11:08:58.145Z,22.20
2022-09-01T11:10:08.760Z,22.17
2022-09-01T11:10:59.127Z,22.19
2022-09-01T11:11:58.115Z,22.20
2022-09-01T11:12:58.112Z,22.13
2022-09-01T11:13:58.084Z,22.12
2022-09-01T11:14:58.075Z,22.04
2022-09-01T11:16:00.374Z,22.02
2022-09-01T11:16:58.143Z,22.01
2022-09-01T11:17:58.064Z,22.04
2022-09-01T11:18:58.055Z,22.06
2022-09-01T11:19:58.027Z,22.02
2022-09-01T11:20:58.060Z,21.98
2022-09-01T11:21:58.007Z,21.92
2022-09-01T11:22:57.990Z,21.88
2022-09-01T11:23:57.971Z,21.85
2022-09-01T11:25:02.471Z,21.81
2022-09-01T11:26:58.939Z,21.74
2022-09-01T11:27:57.932Z,21.72
2022-09-01T11:28:57.924Z,21.72
2022-09-01T11:29:57.936Z,21.72
2022-09-01T11:30:57.910Z,21.69
2022-09-01T11:31:57.968Z,21.72
2022-09-01T11:32:57.898Z,21.74
2022-09-01T11:33:57.879Z,21.74
2022-09-01T11:34:57.859Z,21.71
2022-09-01T11:35:57.854Z,21.71
2022-09-01T11:36:57.831Z,21.69
2022-09-01T11:37:57.831Z,21.82
2022-09-01T11:38:57.827Z,22.02
2022-09-01T11:39:57.824Z,22.17
2022-09-01T11:40:57.838Z,22.31
2022-09-01T11:42:00.921Z,22.39
2022-09-01T11:42:58.777Z,22.49
2022-09-01T11:43:57.765Z,22.59
2022-09-01T11:44:57.769Z,22.67
2022-09-01T11:45:57.792Z,22.80
2022-09-01T11:46:57.719Z,22.92
2022-09-01T11:47:57.747Z,23.07
2022-09-01T11:48:57.735Z,23.15
2022-09-01T11:49:57.677Z,23.12
2022-09-01T11:50:58.635Z,23.17
2022-09-01T11:51:57.660Z,23.19
2022-09-01T11:53:01.255Z,23.19
2022-09-01T11:53:58.651Z,23.15
2022-09-01T11:54:57.620Z,23.14
2022-09-01T11:55:57.640Z,23.12
2022-09-01T11:56:57.600Z,23.19
2022-09-01T11:57:57.600Z,23.17
2022-09-01T11:58:57.590Z,23.20
2022-09-01T11:59:57.584Z,23.23
2022-09-01T12:00:57.563Z,23.20
2022-09-01T12:01:57.717Z,23.07
2022-09-01T12:02:57.742Z,23.12
2022-09-01T12:03:57.536Z,23.15
2022-09-01T12:04:57.522Z,23.17
2022-09-01T12:05:57.507Z,23.14
2022-09-01T12:06:57.511Z,23.07
2022-09-01T12:07:58.438Z,22.94
2022-09-01T12:08:57.497Z,22.89
2022-09-01T12:09:57.459Z,22.89
2022-09-01T12:10:57.466Z,22.74
2022-09-01T12:11:57.444Z,22.68
2022-09-01T12:12:57.431Z,22.64
2022-09-01T12:13:57.427Z,22.60
2022-09-01T12:15:05.641Z,22.62
2022-09-01T12:16:17.549Z,22.67
2022-09-01T12:16:58.449Z,22.71
2022-09-01T12:17:57.412Z,22.65
2022-09-01T12:18:57.367Z,22.64
2022-09-01T12:19:57.351Z,22.69
2022-09-01T12:20:57.338Z,22.65
2022-09-01T12:21:57.341Z,22.64
2022-09-01T12:22:57.356Z,22.68
2022-09-01T12:23:57.334Z,22.75
2022-09-01T12:24:57.285Z,22.77
2022-09-01T12:25:57.285Z,22.74
2022-09-01T12:26:57.288Z,22.80
2022-09-01T12:27:57.272Z,22.72
2022-09-01T12:28:57.258Z,22.65
2022-09-01T12:29:58.234Z,22.62
2022-09-01T12:30:57.226Z,22.56
2022-09-01T12:31:57.322Z,22.49
2022-09-01T12:33:58.248Z,22.53
2022-09-01T12:34:57.191Z,22.54
2022-09-01T12:35:59.539Z,22.62
2022-09-01T12:36:57.175Z,22.54
2022-09-01T12:37:57.161Z,22.50
2022-09-01T12:38:57.132Z,22.52
2022-09-01T12:39:57.134Z,22.62
2022-09-01T12:40:57.111Z,22.68
2022-09-01T12:41:57.574Z,22.87
2022-09-01T12:42:57.204Z,22.96
2022-09-01T12:43:57.101Z,22.94
2022-09-01T12:44:57.072Z,22.87
2022-09-01T12:45:57.106Z,22.77
2022-09-01T12:46:57.058Z,22.65
2022-09-01T12:47:57.040Z,22.72
2022-09-01T12:48:57.493Z,22.86
2022-09-01T12:49:57.017Z,22.80
2022-09-01T12:50:57.034Z,22.71
2022-09-01T12:51:57.004Z,22.59
2022-09-01T12:52:56.991Z,22.67
2022-09-01T12:53:58.492Z,22.80
2022-09-01T12:54:56.987Z,22.77
2022-09-01T12:55:56.996Z,22.75
2022-09-01T12:56:56.947Z,22.75
2022-09-01T12:57:56.939Z,22.68
2022-09-01T12:58:56.909Z,22.67
2022-09-01T12:59:56.929Z,22.68
2022-09-01T13:00:57.028Z,22.71
2022-09-01T13:01:57.040Z,22.64
2022-09-01T13:03:56.876Z,22.60
2022-09-01T13:04:57.266Z,22.56
2022-09-01T13:05:56.847Z,22.52
2022-09-01T13:06:57.738Z,22.39
2022-09-01T13:07:56.825Z,22.35
2022-09-01T13:08:56.933Z,22.32
2022-09-01T13:09:56.828Z,22.35
2022-09-01T13:10:56.793Z,22.44
2022-09-01T13:12:12.249Z,22.53
2022-09-01T13:12:57.780Z,22.60
2022-09-01T13:13:56.746Z,22.44
2022-09-01T13:14:56.737Z,22.39
2022-09-01T13:15:56.993Z,22.32
2022-09-01T13:16:57.234Z,22.29
2022-09-01T13:17:56.719Z,22.39
2022-09-01T13:19:12.233Z,22.53
2022-09-01T13:19:58.646Z,22.53
2022-09-01T13:20:56.687Z,22.49
2022-09-01T13:21:56.699Z,22.43